Time;durP1;ratioP1;P1;durP2;ratioP2;P2;SDS_P1;SDS_P2;PMS_P1;PMS_P2;Temp;Humidity;BMP_temperature;BMP_pressure;BME280_temperature;BME280_humidity;BME280_pressure;Samples;Min_cycle;Max_cycle;Signal;HPM_P1;HPM_P2
2021/05/01 07:22:10;;;;;;;1.60;0.82;;;;;;;;;;5037045;28;20124;-96
2021/05/01 07:24:36;;;;;;;2.65;1.23;;;13.30;99.90;;;;;;5035265;28;20053;-96
2021/05/01 07:27:03;;;;;;;0.90;0.57;;;15.30;99.90;;;;;;5035502;28;20154;-96
2021/05/01 07:29:35;;;;;;;1.10;0.80;;;17.20;90.90;;;;;;5035420;28;20045;-95
2021/05/01 07:32:03;;;;;;;2.38;0.30;;;18.30;71.40;;;;;;5035631;28;20453;-95
2021/05/01 07:34:29;;;;;;;1.92;1.15;;;19.70;82.40;;;;;;5035716;28;20496;-94
2021/05/01 07:36:56;;;;;;;2.55;0.95;;;20.40;57.70;;;;;;5035839;28;20053;-93
2021/05/01 07:39:24;;;;;;;1.52;0.95;;;20.90;55.90;;;;;;5035502;28;20063;-94
2021/05/01 07:41:56;;;;;;;1.50;1.13;;;21.60;57.90;;;;;;5035475;28;20050;-94
2021/05/01 07:44:24;;;;;;;1.30;0.60;;;22.20;52.90;;;;;;5035542;28;20049;-94
2021/05/01 07:46:51;;;;;;;0.93;0.85;;;22.90;53.10;;;;;;5035294;28;20052;-93
2021/05/01 07:49:17;;;;;;;1.90;0.85;;;23.50;49.40;;;;;;5035160;28;20051;-94
2021/05/01 07:51:44;;;;;;;3.92;1.70;;;24.00;52.90;;;;;;5035656;28;20476;-94
2021/05/01 07:54:11;;;;;;;0.43;0.40;;;;;;;;;;5035465;28;20068;-94
2021/05/01 07:56:39;;;;;;;1.25;0.90;;;24.30;45.00;;;;;;5035454;28;20107;-94
2021/05/01 07:59:06;;;;;;;1.38;0.85;;;24.60;48.30;;;;;;5035083;28;20050;-94
2021/05/01 08:01:33;;;;;;;1.15;0.60;;;24.40;49.80;;;;;;5035315;28;20053;-94
2021/05/01 08:04:00;;;;;;;0.95;0.50;;;23.80;47.60;;;;;;5035307;28;20124;-94
2021/05/01 08:06:27;;;;;;;0.93;0.60;;;21.90;50.70;;;;;;5035449;28;20363;-94
2021/05/01 08:08:54;;;;;;;3.80;0.88;;;19.70;52.30;;;;;;5035419;28;20072;-93
2021/05/01 08:11:21;;;;;;;1.10;1.00;;;17.60;55.60;;;;;;5035124;28;20059;-93
2021/05/01 08:13:48;;;;;;;0.65;0.65;;;15.90;59.00;;;;;;5035475;28;20432;-93
2021/05/01 08:16:15;;;;;;;0.77;0.50;;;14.50;67.90;;;;;;5035069;28;20057;-94
2021/05/01 08:18:42;;;;;;;0.80;0.57;;;13.60;76.70;;;;;;5035179;28;20045;-94
2021/05/01 08:21:08;;;;;;;0.98;0.68;;;12.70;83.50;;;;;;5034816;28;20064;-94
2021/05/01 08:23:36;;;;;;;0.50;0.40;;;;;;;;;;5034733;28;20053;-94
2021/05/01 08:26:03;;;;;;;0.85;0.52;;;11.80;97.70;;;;;;5034795;28;20428;-96
2021/05/01 08:28:30;;;;;;;1.23;0.50;;;;;;;;;;5035242;28;20128;-96
2021/05/01 08:30:58;;;;;;;1.88;0.88;;;;;;;;;;5034993;28;20050;-96
2021/05/01 08:33:24;;;;;;;1.40;0.60;;;;;;;;;;5034991;28;20049;-96
2021/05/01 08:35:52;;;;;;;0.38;0.32;;;;;;;;;;5035194;28;20435;-96
2021/05/01 08:38:20;;;;;;;1.38;0.68;;;10.40;99.90;;;;;;5038550;28;20045;-95
2021/05/01 08:40:47;;;;;;;1.33;1.23;;;;;;;;;;5038812;28;20053;-95
2021/05/01 08:43:14;;;;;;;0.95;0.77;;;10.20;99.90;;;;;;5038822;28;20533;-94
2021/05/01 08:45:41;;;;;;;1.92;0.98;;;10.10;99.90;;;;;;5038940;28;20381;-94
2021/05/01 08:48:09;;;;;;;2.30;0.82;;;10.00;99.90;;;;;;5038827;28;20049;-95
2021/05/01 08:50:39;;;;;;;;;;;9.90;99.90;;;;;;5039186;28;20049;-95
2021/05/01 08:53:07;;;;;;;;;;;9.70;99.90;;;;;;5039252;28;20261;-94
2021/05/01 08:55:35;;;;;;;;;;;9.60;99.90;;;;;;5039228;28;19932;-94
2021/05/01 08:58:02;;;;;;;;;;;9.50;99.90;;;;;;5038857;28;19925;-94
2021/05/01 09:00:28;;;;;;;;;;;9.50;99.90;;;;;;5038793;28;19932;-95
2021/05/01 09:02:54;;;;;;;;;;;9.40;99.90;;;;;;5038706;28;19935;-94
2021/05/01 09:05:23;;;;;;;;;;;9.30;99.90;;;;;;5037779;28;19925;-95
2021/05/01 09:07:50;;;;;;;;;;;9.30;99.90;;;;;;5038669;28;19936;-90
2021/05/01 09:10:16;;;;;;;;;;;9.20;99.90;;;;;;5038387;28;20439;-94
2021/05/01 09:12:44;;;;;;;;;;;9.20;99.90;;;;;;5038437;28;19925;-93
2021/05/01 09:15:11;;;;;;;;;;;9.10;99.90;;;;;;5038084;28;19925;-93
2021/05/01 09:17:37;;;;;;;;;;;9.20;99.90;;;;;;5038206;28;20043;-93
2021/05/01 09:20:08;;;;;;;;;;;9.30;99.90;;;;;;5038094;28;19933;-94
2021/05/01 09:22:36;;;;;;;;;;;9.40;99.90;;;;;;5038299;28;19929;-94
2021/05/01 09:25:06;;;;;;;;;;;9.50;99.90;;;;;;5038037;28;19933;-94
2021/05/01 09:27:33;;;;;;;;;;;9.50;99.90;;;;;;5038031;28;19932;-94
2021/05/01 09:30:11;;;;;;;;;;;9.50;99.90;;;;;;5038078;28;20276;-94
2021/05/01 09:32:37;;;;;;;;;;;9.60;99.90;;;;;;5037989;28;19936;-93
2021/05/01 09:35:04;;;;;;;;;;;9.60;99.90;;;;;;5038015;28;19955;-93
2021/05/01 09:37:30;;;;;;;;;;;9.60;99.90;;;;;;5037865;28;20375;-94
2021/05/01 09:39:58;;;;;;;;;;;9.60;99.90;;;;;;5037847;28;20264;-94
2021/05/01 09:42:27;;;;;;;;;;;9.70;99.90;;;;;;5037661;28;19925;-93
2021/05/01 09:45:04;;;;;;;;;;;9.60;99.90;;;;;;5037997;28;19929;-93
2021/05/01 09:47:31;;;;;;;;;;;9.60;99.90;;;;;;5037169;28;20262;-93
2021/05/01 09:49:57;;;;;;;;;;;9.60;99.90;;;;;;5037945;28;19925;-93
2021/05/01 09:52:24;;;;;;;0.88;0.68;;;9.60;99.90;;;;;;5037266;28;19929;-95
2021/05/01 09:54:50;;;;;;;0.63;0.60;;;9.50;99.90;;;;;;5037393;28;20064;-95
2021/05/01 09:57:18;;;;;;;0.80;0.47;;;9.40;99.90;;;;;;5037283;28;20128;-95
2021/05/01 09:59:45;;;;;;;0.70;0.30;;;9.20;99.90;;;;;;5037376;28;20049;-94
2021/05/01 10:02:13;;;;;;;0.40;0.40;;;8.90;99.90;;;;;;5037483;28;20049;-96
2021/05/01 10:04:39;;;;;;;0.30;0.30;;;8.90;99.90;;;;;;5037249;28;20061;-92
2021/05/01 10:07:07;;;;;;;0.32;0.30;;;8.60;99.90;;;;;;5037048;28;20056;-91
2021/05/01 10:09:34;;;;;;;0.63;0.57;;;8.40;99.90;;;;;;5036292;28;20075;-92
2021/05/01 10:12:06;;;;;;;0.65;0.30;;;8.10;99.90;;;;;;5037115;28;20065;-90
2021/05/01 11:04:53;;;;;;;;;;;8.20;99.90;;;;;;5146980;23;19952;-89
2021/05/01 11:15:59;;;;;;;;;;;8.50;99.90;;;;;;5068184;23;19921;-91
2021/05/01 11:18:26;;;;;;;;;;;8.50;99.90;;;;;;5036972;28;19957;-92
2021/05/01 11:20:57;;;;;;;;;;;8.50;99.90;;;;;;5036126;28;19974;-93
2021/05/01 11:23:24;;;;;;;;;;;8.60;99.90;;;;;;5036395;28;19947;-92
2021/05/01 11:25:54;;;;;;;;;;;8.70;99.90;;;;;;5036013;28;19921;-93
2021/05/01 11:28:20;;;;;;;;;;;8.70;99.90;;;;;;5036384;28;19921;-91
2021/05/01 11:30:47;;;;;;;;;;;8.70;99.90;;;;;;5035862;28;19928;-92
2021/05/01 11:33:13;;;;;;;;;;;8.80;99.90;;;;;;5036078;28;20273;-92
2021/05/01 11:35:39;;;;;;;;;;;8.80;99.90;;;;;;5035777;28;19975;-93
2021/05/01 11:38:07;;;;;;;;;;;8.80;99.90;;;;;;5035702;28;19922;-93
2021/05/01 11:40:33;;;;;;;;;;;8.90;99.90;;;;;;5035857;28;19921;-92
2021/05/01 11:43:00;;;;;;;;;;;8.80;99.90;;;;;;5035706;28;20012;-93
2021/05/01 11:45:28;;;;;;;;;;;8.90;99.90;;;;;;5035970;28;19922;-92
2021/05/01 11:48:00;;;;;;;;;;;8.80;99.90;;;;;;5035644;28;19921;-92
2021/05/01 11:50:26;;;;;;;;;;;8.80;99.90;;;;;;5035791;28;19921;-92
2021/05/01 11:52:59;;;;;;;;;;;8.90;99.90;;;;;;5035550;28;19921;-92
2021/05/01 11:55:27;;;;;;;;;;;8.90;99.90;;;;;;5035697;28;19921;-92
2021/05/01 11:57:55;;;;;;;;;;;8.90;99.90;;;;;;5035229;28;20361;-92
2021/05/01 12:00:33;;;;;;;;;;;8.90;99.90;;;;;;5035369;28;19932;-92
2021/05/01 12:02:59;;;;;;;;;;;8.90;99.90;;;;;;5035759;28;20265;-91
2021/05/01 12:05:26;;;;;;;;;;;8.90;99.90;;;;;;5035245;28;19927;-92
2021/05/01 12:07:54;;;;;;;;;;;8.90;99.90;;;;;;5035709;28;19951;-90
2021/05/01 12:10:21;;;;;;;;;;;8.90;99.90;;;;;;5036468;28;19924;-91
2021/05/01 12:12:49;;;;;;;;;;;9.00;99.90;;;;;;5039534;28;19928;-91
2021/05/01 12:15:15;;;;;;;;;;;9.00;99.90;;;;;;5039348;28;19932;-91
2021/05/01 12:17:49;;;;;;;;;;;9.10;99.90;;;;;;5039634;28;19927;-91
2021/05/01 12:20:17;;;;;;;;;;;9.20;99.90;;;;;;5039484;28;20011;-91
2021/05/01 12:22:43;;;;;;;;;;;9.30;99.90;;;;;;5039422;28;20012;-91
2021/05/01 12:25:38;;;;;;;;;;;9.40;99.90;;;;;;5039507;28;19975;-88
2021/05/01 12:31:02;;;;;;;;;;;9.40;99.90;;;;;;5042450;28;20301;-92
2021/05/01 12:33:49;;;;;;;;;;;9.40;99.90;;;;;;5039287;28;19921;-92
2021/05/01 12:36:16;;;;;;;;;;;9.40;99.90;;;;;;5039400;28;20231;-93
2021/05/01 12:38:43;;;;;;;;;;;9.40;99.90;;;;;;5039141;28;19991;-93
2021/05/01 12:41:16;;;;;;;;;;;9.40;99.90;;;;;;5038575;28;19925;-93
2021/05/01 12:43:45;;;;;;;;;;;9.40;99.90;;;;;;5038882;28;20327;-93
2021/05/01 12:46:15;;;;;;;;;;;9.40;99.90;;;;;;5039100;28;19933;-93
2021/05/01 12:48:46;;;;;;;;;;;9.40;99.90;;;;;;5038739;28;20337;-93
2021/05/01 12:51:13;;;;;;;;;;;9.40;99.90;;;;;;5038825;28;19986;-93
2021/05/01 12:53:41;;;;;;;;;;;9.40;99.90;;;;;;5038945;28;20008;-92
2021/05/01 12:56:13;;;;;;;;;;;9.40;99.90;;;;;;5038574;28;19929;-93
2021/05/01 12:58:40;;;;;;;;;;;9.50;99.90;;;;;;5038665;28;20345;-93
2021/05/01 13:01:24;;;;;;;;;;;9.50;99.90;;;;;;5038414;28;19928;-93
2021/05/01 13:04:09;;;;;;;;;;;9.60;99.90;;;;;;5037819;28;19932;-93
2021/05/01 13:06:36;;;;;;;;;;;9.60;99.90;;;;;;5038398;28;19958;-92
2021/05/01 13:09:03;;;;;;;;;;;9.70;99.90;;;;;;5038582;28;19921;-92
2021/05/01 13:11:30;;;;;;;;;;;9.80;99.90;;;;;;5038612;28;20226;-92
2021/05/01 13:14:11;;;;;;;;;;;9.80;99.90;;;;;;5038495;28;19957;-92
2021/05/01 13:16:52;;;;;;;;;;;9.80;99.90;;;;;;5038141;28;19982;-93
2021/05/01 13:19:18;;;;;;;;;;;9.90;99.90;;;;;;5037491;28;19921;-92
2021/05/01 13:21:52;;;;;;;;;;;10.00;99.90;;;;;;5037471;28;20242;-92
2021/05/01 13:24:24;;;;;;;;;;;10.00;99.90;;;;;;5038194;28;19933;-93
2021/05/01 13:26:51;;;;;;;;;;;10.10;99.90;;;;;;5037928;28;19921;-92
2021/05/01 13:29:17;;;;;;;;;;;10.10;99.90;;;;;;5037917;28;19921;-92
2021/05/01 13:31:48;;;;;;;;;;;10.10;99.90;;;;;;5038102;28;20015;-92
2021/05/01 13:34:15;;;;;;;;;;;10.10;99.90;;;;;;5037943;28;19921;-92
2021/05/01 13:36:42;;;;;;;;;;;10.10;99.90;;;;;;5038024;28;20016;-92
2021/05/01 13:39:12;;;;;;;;;;;10.00;99.80;;;;;;5037744;28;19974;-92
2021/05/01 13:41:38;;;;;;;;;;;10.00;99.90;;;;;;5037244;28;19921;-93
2021/05/01 13:44:05;;;;;;;0.23;0.10;;;10.00;96.00;;;;;;5037702;28;19925;-93
2021/05/01 13:46:32;;;;;;;0.30;0.20;;;10.10;95.70;;;;;;5037510;28;20056;-94
2021/05/01 13:48:58;;;;;;;0.63;0.30;;;10.10;99.40;;;;;;5037519;28;20373;-93
2021/05/01 13:51:29;;;;;;;0.70;0.40;;;10.10;99.70;;;;;;5037625;28;20056;-94
2021/05/01 13:54:10;;;;;;;2.20;1.02;;;10.10;99.90;;;;;;5037077;28;20054;-93
2021/05/01 13:56:43;;;;;;;;;;;10.10;99.90;;;;;;5037704;28;20045;-92
2021/05/01 13:59:12;;;;;;;;;;;10.10;99.90;;;;;;5037648;28;20015;-93
2021/05/01 14:01:45;;;;;;;;;;;10.10;99.90;;;;;;5037474;28;19968;-92
2021/05/01 14:04:27;;;;;;;;;;;10.10;99.90;;;;;;5037430;28;19920;-93
2021/05/01 14:06:55;;;;;;;;;;;10.10;99.90;;;;;;5037308;28;19921;-93
2021/05/01 14:09:25;;;;;;;;;;;10.10;98.90;;;;;;5037165;28;19921;-93
2021/05/01 14:12:00;;;;;;;;;;;10.10;99.90;;;;;;5037330;28;19928;-92
2021/05/01 14:14:29;;;;;;;;;;;10.00;97.90;;;;;;5037275;28;20284;-92
2021/05/01 14:17:04;;;;;;;;;;;9.90;99.80;;;;;;5037155;28;20019;-92
2021/05/01 14:19:31;;;;;;;;;;;9.90;99.90;;;;;;5036968;28;19928;-92
2021/05/01 14:21:57;;;;;;;;;;;9.90;99.90;;;;;;5037139;28;20346;-93
2021/05/01 14:24:29;;;;;;;;;;;9.90;99.90;;;;;;5037049;28;19921;-92
2021/05/01 14:26:57;;;;;;;;;;;9.90;97.90;;;;;;5037117;28;19921;-92
2021/05/01 14:29:25;;;;;;;;;;;9.90;99.90;;;;;;5037192;28;19987;-92
2021/05/01 14:32:10;;;;;;;;;;;9.90;99.90;;;;;;5037154;28;20231;-92
2021/05/01 14:34:39;;;;;;;;;;;10.00;99.90;;;;;;5037003;28;19921;-92
2021/05/01 14:37:05;;;;;;;0.85;0.32;;;10.00;99.10;;;;;;5035450;28;20434;-80
2021/05/01 14:39:34;;;;;;;0.25;0.20;;;10.10;99.90;;;;;;5035830;28;20045;-83
2021/05/01 14:42:16;;;;;;;0.38;0.38;;;10.30;99.90;;;;;;5035795;28;20138;-82
2021/05/01 14:44:43;;;;;;;2.15;0.25;;;10.40;99.90;;;;;;5035594;28;20049;-80
2021/05/01 14:47:15;;;;;;;0.45;0.28;;;10.50;98.60;;;;;;5035587;28;20053;-81
2021/05/01 14:49:44;;;;;;;0.20;0.20;;;10.60;76.30;;;;;;5034206;28;20059;-82
2021/05/01 14:52:12;;;;;;;2.35;0.45;;;10.60;79.90;;;;;;5035557;28;20049;-82
2021/05/01 14:54:42;;;;;;;0.13;0.13;;;10.60;84.60;;;;;;5035200;28;20053;-81
2021/05/01 14:57:14;;;;;;;0.40;0.40;;;10.60;90.10;;;;;;5035376;28;20050;-80
2021/05/01 14:59:44;;;;;;;0.85;0.40;;;10.60;90.60;;;;;;5035385;28;20049;-80
2021/05/01 15:02:21;;;;;;;0.22;0.22;;;10.70;93.10;;;;;;5035386;28;20049;-82
2021/05/01 15:05:02;;;;;;;0.20;0.20;;;10.70;90.40;;;;;;5035418;28;20060;-81
2021/05/01 15:07:32;;;;;;;0.35;0.32;;;10.60;95.30;;;;;;5034806;28;20050;-80
2021/05/01 15:10:06;;;;;;;0.40;0.40;;;10.60;93.80;;;;;;5035270;28;20095;-81
2021/05/01 15:12:35;;;;;;;0.52;0.10;;;10.50;93.70;;;;;;5034882;28;20053;-80
2021/05/01 15:15:10;;;;;;;0.88;0.47;;;10.50;93.50;;;;;;5034617;28;20385;-80
2021/05/01 15:17:51;;;;;;;1.35;0.75;;;10.40;96.40;;;;;;5035099;28;20103;-80
2021/05/01 15:20:31;;;;;;;0.73;0.30;;;10.40;95.60;;;;;;5035092;28;20458;-80
2021/05/01 15:23:08;;;;;;;0.77;0.43;;;10.40;97.40;;;;;;5035154;28;20474;-85
2021/05/01 15:25:36;;;;;;;0.30;0.30;;;10.30;88.70;;;;;;5031270;28;20052;-87
2021/05/01 15:28:03;;;;;;;1.35;0.55;;;10.30;92.00;;;;;;5045382;28;20114;-82
2021/05/01 15:30:35;;;;;;;1.52;0.28;;;10.30;97.00;;;;;;5035146;28;20052;-81
2021/05/01 15:33:02;;;;;;;0.25;0.20;;;10.20;92.90;;;;;;5034828;28;20385;-81
2021/05/01 15:35:29;;;;;;;1.83;0.63;;;10.20;95.00;;;;;;5037287;28;20536;-83
2021/05/01 15:37:56;;;;;;;0.10;0.10;;;10.20;93.90;;;;;;5043145;28;20049;-80
2021/05/01 15:40:23;;;;;;;0.85;0.30;;;10.20;95.20;;;;;;5054314;28;20501;-81
2021/05/01 15:42:50;;;;;;;0.57;0.45;;;10.20;94.00;;;;;;5042199;28;20079;-79
2021/05/01 15:45:18;;;;;;;1.38;0.55;;;10.30;93.60;;;;;;5042676;28;20539;-81
2021/05/01 15:47:45;;;;;;;1.60;0.55;;;10.30;94.00;;;;;;5041986;28;20053;-80
2021/05/01 15:50:13;;;;;;;1.35;0.60;;;10.40;91.50;;;;;;5034216;28;20049;-83
2021/05/01 15:52:39;;;;;;;0.40;0.30;;;10.40;94.00;;;;;;5034524;28;20060;-86
2021/05/01 15:55:07;;;;;;;1.42;0.40;;;10.40;95.10;;;;;;5034096;28;20050;-84
2021/05/01 15:57:34;;;;;;;0.80;0.45;;;10.40;90.10;;;;;;5034623;28;20081;-80
2021/05/01 16:00:02;;;;;;;0.32;0.32;;;10.40;92.80;;;;;;5034248;28;20053;-83
2021/05/01 16:02:29;;;;;;;0.50;0.40;;;10.40;97.70;;;;;;5034627;28;20393;-80
2021/05/01 16:04:55;;;;;;;0.20;0.20;;;10.40;90.90;;;;;;5034575;28;20053;-82
2021/05/01 16:07:22;;;;;;;0.63;0.35;;;10.30;92.50;;;;;;5034266;28;20053;-81
2021/05/01 16:09:48;;;;;;;0.35;0.35;;;10.30;92.80;;;;;;5034101;28;20049;-82
2021/05/01 16:12:15;;;;;;;0.55;0.10;;;10.40;97.50;;;;;;5034194;28;20454;-80
2021/05/01 16:14:41;;;;;;;0.20;0.20;;;10.40;94.90;;;;;;5034262;28;20080;-80
2021/05/01 16:17:09;;;;;;;3.08;1.60;;;10.40;84.60;;;;;;5036909;28;20049;-81
2021/05/01 16:19:35;;;;;;;3.30;1.10;;;10.40;90.40;;;;;;5036763;28;20057;-81
2021/05/01 16:22:02;;;;;;;0.60;0.30;;;10.50;92.00;;;;;;5030337;28;20087;-81
2021/05/01 16:24:29;;;;;;;0.70;0.40;;;10.50;92.30;;;;;;5034228;28;20057;-81
2021/05/01 16:26:55;;;;;;;0.98;0.52;;;10.50;93.60;;;;;;5017802;28;20046;-81
2021/05/01 16:29:22;;;;;;;1.40;0.70;;;10.50;84.50;;;;;;5014171;28;20095;-82
2021/05/01 16:31:48;;;;;;;0.30;0.30;;;10.60;94.20;;;;;;5013980;28;20061;-82
2021/05/01 16:34:16;;;;;;;1.00;0.40;;;10.60;94.80;;;;;;5014317;28;20054;-79
2021/05/01 16:36:45;;;;;;;3.28;0.40;;;10.60;94.40;;;;;;5014076;28;20060;-80
2021/05/01 16:39:11;;;;;;;0.75;0.32;;;10.60;94.80;;;;;;5013770;28;20045;-80
2021/05/01 16:41:38;;;;;;;0.30;0.25;;;10.50;96.20;;;;;;5013904;28;20061;-80
2021/05/01 16:44:05;;;;;;;11.15;1.17;;;10.50;95.70;;;;;;5014087;28;20053;-81
2021/05/01 16:46:32;;;;;;;1.85;0.50;;;10.50;92.10;;;;;;5013626;28;20060;-80
2021/05/01 16:48:59;;;;;;;1.67;0.52;;;10.50;90.00;;;;;;5013219;28;20064;-80
2021/05/01 16:51:29;;;;;;;0.43;0.30;;;10.50;92.00;;;;;;5013852;28;20050;-80
2021/05/01 16:53:55;;;;;;;0.63;0.45;;;10.40;96.60;;;;;;5014219;28;20050;-80
2021/05/01 16:56:22;;;;;;;0.88;0.70;;;10.30;97.20;;;;;;5013964;28;20474;-80
2021/05/01 16:58:48;;;;;;;1.08;0.38;;;10.30;94.70;;;;;;5016826;28;20147;-80
2021/05/01 17:01:15;;;;;;;0.32;0.22;;;10.20;97.50;;;;;;5017481;28;20049;-83
2021/05/01 17:03:42;;;;;;;0.45;0.30;;;10.10;97.90;;;;;;5017394;28;20050;-80
2021/05/01 17:06:08;;;;;;;0.55;0.30;;;10.10;98.70;;;;;;5017398;28;20060;-80
2021/05/01 17:08:36;;;;;;;0.93;0.40;;;10.10;94.80;;;;;;5017283;28;20077;-80
2021/05/01 17:11:03;;;;;;;1.35;0.60;;;10.00;99.10;;;;;;5017079;28;20046;-80
2021/05/01 17:13:29;;;;;;;0.65;0.50;;;10.00;98.30;;;;;;5017441;28;20050;-80
2021/05/01 17:15:56;;;;;;;0.30;0.30;;;10.00;99.90;;;;;;5017181;28;20057;-80
2021/05/01 17:18:23;;;;;;;0.10;0.10;;;10.00;99.70;;;;;;5017424;28;20060;-80
2021/05/01 17:20:52;;;;;;;0.22;0.20;;;10.00;99.60;;;;;;5019094;28;20053;-80
2021/05/01 17:23:19;;;;;;;0.40;0.22;;;10.00;99.70;;;;;;5028147;28;20057;-80
2021/05/01 17:25:46;;;;;;;0.47;0.22;;;10.00;99.30;;;;;;5022170;28;20624;-80
2021/05/01 17:28:13;;;;;;;1.58;0.30;;;10.00;99.90;;;;;;5017403;28;20053;-83
2021/05/01 17:30:42;;;;;;;0.77;0.20;;;10.10;99.90;;;;;;5017702;28;20046;-80
2021/05/01 17:33:09;;;;;;;0.32;0.20;;;10.10;99.90;;;;;;5017327;28;20065;-81
2021/05/01 17:35:35;;;;;;;0.47;0.30;;;10.10;99.20;;;;;;5017359;28;20094;-80
2021/05/01 17:38:03;;;;;;;0.90;0.52;;;10.10;96.50;;;;;;5017346;28;20066;-80
2021/05/01 17:40:29;;;;;;;0.30;0.20;;;10.10;99.90;;;;;;5016974;28;20053;-81
2021/05/01 17:42:57;;;;;;;0.57;0.22;;;10.00;99.90;;;;;;5017223;28;20056;-81
2021/05/01 17:45:24;;;;;;;0.30;0.30;;;10.00;99.90;;;;;;5017167;28;20045;-80
2021/05/01 17:47:51;;;;;;;1.33;0.57;;;9.90;99.90;;;;;;5017056;28;20137;-81
2021/05/01 17:50:18;;;;;;;0.25;0.25;;;9.90;99.90;;;;;;5016398;28;20050;-83
2021/05/01 17:52:45;;;;;;;0.43;0.15;;;9.80;99.90;;;;;;5017143;28;20050;-82
2021/05/01 17:55:13;;;;;;;0.80;0.38;;;9.70;99.90;;;;;;5016912;28;20093;-80
2021/05/01 17:57:39;;;;;;;1.10;0.50;;;9.70;99.90;;;;;;5016772;28;20073;-82
2021/05/01 18:00:08;;;;;;;2.30;0.52;;;9.60;99.90;;;;;;5016567;28;20042;-80
2021/05/01 18:02:35;;;;;;;0.38;0.22;;;9.50;99.90;;;;;;5016697;28;20053;-81
2021/05/01 18:05:01;;;;;;;0.47;0.22;;;9.50;99.90;;;;;;5016525;28;20504;-80
2021/05/01 18:07:28;;;;;;;;;;;9.50;99.90;;;;;;5017066;28;20058;-80
2021/05/01 18:09:54;;;;;;;;;;;9.50;99.90;;;;;;5016540;28;20346;-80
2021/05/01 18:12:21;;;;;;;0.93;0.60;;;9.40;99.90;;;;;;5015210;28;20871;-80
2021/05/01 18:14:49;;;;;;;0.90;0.50;;;9.40;99.90;;;;;;5016135;28;20062;-80
2021/05/01 18:17:17;;;;;;;0.55;0.30;;;9.40;99.90;;;;;;5016438;28;20112;-80
2021/05/01 18:19:43;;;;;;;0.60;0.60;;;9.30;99.90;;;;;;5016133;28;20374;-80
2021/05/01 18:22:10;;;;;;;0.20;0.20;;;9.30;99.90;;;;;;5016540;28;20064;-80
2021/05/01 18:24:36;;;;;;;0.63;0.30;;;9.20;99.90;;;;;;5016162;28;20084;-79
2021/05/01 18:27:04;;;;;;;0.63;0.30;;;9.20;99.90;;;;;;5016292;28;20133;-80
2021/05/01 18:29:31;;;;;;;0.63;0.50;;;9.20;99.90;;;;;;5016214;28;20078;-82
2021/05/01 18:31:58;;;;;;;0.70;0.30;;;9.20;99.90;;;;;;5016323;28;20046;-80
2021/05/01 18:34:25;;;;;;;1.33;0.55;;;9.10;99.90;;;;;;5016409;28;20192;-80
2021/05/01 18:36:52;;;;;;;0.63;0.40;;;9.10;99.90;;;;;;5015889;28;20072;-80
2021/05/01 18:39:19;;;;;;;0.68;0.43;;;9.10;99.90;;;;;;5016142;28;20042;-81
2021/05/01 18:41:46;;;;;;;1.60;0.40;;;9.10;99.90;;;;;;5015766;28;20474;-80
2021/05/01 18:44:12;;;;;;;0.85;0.50;;;9.00;99.90;;;;;;5016208;28;20072;-80
2021/05/01 18:46:39;;;;;;;0.28;0.13;;;9.00;99.90;;;;;;5016109;28;20454;-80
2021/05/01 18:49:06;;;;;;;1.65;0.68;;;9.00;99.90;;;;;;5016031;28;20060;-80
2021/05/01 18:51:33;;;;;;;0.95;0.30;;;8.90;99.90;;;;;;5015532;28;20066;-80
2021/05/01 18:54:00;;;;;;;0.28;0.10;;;8.90;99.90;;;;;;5015823;28;20068;-80
2021/05/01 18:56:26;;;;;;;0.25;0.20;;;8.80;99.90;;;;;;5015791;28;20050;-80
2021/05/01 18:58:53;;;;;;;0.20;0.20;;;8.80;99.90;;;;;;5015476;28;20107;-80
2021/05/01 19:01:20;;;;;;;0.73;0.40;;;8.70;99.90;;;;;;5015518;28;20137;-81
2021/05/01 19:03:48;;;;;;;0.22;0.22;;;8.70;99.90;;;;;;5015362;28;20390;-80
2021/05/01 19:06:15;;;;;;;1.35;0.80;;;8.70;99.90;;;;;;5015431;28;20056;-79
2021/05/01 19:08:42;;;;;;;0.17;0.17;;;8.70;99.90;;;;;;5015668;28;20060;-80
2021/05/01 19:11:09;;;;;;;0.10;0.10;;;8.60;99.90;;;;;;5015695;28;20046;-80
2021/05/01 19:13:36;;;;;;;0.75;0.30;;;8.70;99.90;;;;;;5015237;28;20058;-80
2021/05/01 19:16:03;;;;;;;0.45;0.35;;;8.60;99.90;;;;;;5014957;28;20123;-80
2021/05/01 19:18:30;;;;;;;0.63;0.43;;;8.60;99.90;;;;;;5015121;28;20046;-81
2021/05/01 19:20:57;;;;;;;0.40;0.20;;;8.60;99.90;;;;;;5014332;28;20050;-80
2021/05/01 19:23:25;;;;;;;0.30;0.30;;;8.60;99.90;;;;;;5015106;28;20050;-80
2021/05/01 19:25:53;;;;;;;0.57;0.30;;;8.50;99.90;;;;;;5015164;28;20053;-80
2021/05/01 19:28:20;;;;;;;0.57;0.25;;;8.50;99.90;;;;;;5015081;28;20081;-83
2021/05/01 19:30:47;;;;;;;0.98;0.30;;;8.50;99.90;;;;;;5015313;28;20379;-80
2021/05/01 19:33:14;;;;;;;1.17;0.40;;;8.40;99.90;;;;;;5015396;28;20050;-80
2021/05/01 19:35:41;;;;;;;0.45;0.45;;;8.40;99.90;;;;;;5014978;28;20470;-80
2021/05/01 19:38:08;;;;;;;0.55;0.30;;;8.30;99.90;;;;;;5015145;28;20064;-81
2021/05/01 19:40:35;;;;;;;0.60;0.20;;;8.30;99.90;;;;;;5015051;28;20509;-80
2021/05/01 19:43:02;;;;;;;0.20;0.20;;;8.20;99.90;;;;;;5015015;28;20059;-79
2021/05/01 19:45:30;;;;;;;2.30;1.25;;;8.20;99.90;;;;;;5014620;28;20060;-80
2021/05/01 19:47:58;;;;;;;3.70;0.38;;;8.20;99.90;;;;;;5014646;28;20458;-80
2021/05/01 19:50:24;;;;;;;0.35;0.32;;;8.20;99.90;;;;;;5014960;28;20056;-80
2021/05/01 19:52:51;;;;;;;1.75;1.05;;;8.20;99.90;;;;;;5014768;28;20475;-80
2021/05/01 19:55:18;;;;;;;0.77;0.77;;;8.30;99.90;;;;;;5014718;28;20528;-80
2021/05/01 19:57:45;;;;;;;1.63;0.75;;;8.30;99.90;;;;;;5014837;28;20049;-80
2021/05/01 20:00:15;;;;;;;0.60;0.30;;;8.30;99.90;;;;;;5014888;28;20053;-79
2021/05/01 20:02:42;;;;;;;3.47;1.17;;;8.30;99.90;;;;;;5014752;28;20057;-80
2021/05/01 20:05:10;;;;;;;5.95;1.70;;;8.30;99.90;;;;;;5014849;28;20061;-80
2021/05/01 20:07:36;;;;;;;3.53;2.15;;;8.30;99.90;;;;;;5014383;28;20064;-80
2021/05/01 20:10:04;;;;;;;3.05;1.33;;;8.30;99.90;;;;;;5014585;28;20049;-80
2021/05/01 20:12:31;;;;;;;3.17;1.73;;;8.30;99.90;;;;;;5014834;28;20071;-80
2021/05/01 20:14:58;;;;;;;5.38;2.15;;;8.30;99.90;;;;;;5014542;28;20058;-80
2021/05/01 20:17:25;;;;;;;4.63;1.50;;;8.30;99.90;;;;;;5014521;28;20140;-80
2021/05/01 20:19:52;;;;;;;5.43;1.83;;;8.30;99.90;;;;;;5014453;28;20100;-80
2021/05/01 20:22:18;;;;;;;5.68;2.08;;;8.30;99.90;;;;;;5014466;28;20062;-80
2021/05/01 20:24:45;;;;;;;2.35;1.40;;;8.30;99.90;;;;;;5014457;28;20485;-80
2021/05/01 20:27:12;;;;;;;6.70;2.28;;;8.30;99.90;;;;;;5014382;28;20137;-80
2021/05/01 20:29:41;;;;;;;4.32;2.05;;;8.30;99.90;;;;;;5014200;28;20077;-81
2021/05/01 20:32:08;;;;;;;3.00;1.50;;;8.30;99.90;;;;;;5016460;28;20053;-80
2021/05/01 20:34:37;;;;;;;4.97;2.05;;;8.30;99.90;;;;;;5018675;28;20081;-80
2021/05/01 20:37:04;;;;;;;3.92;1.42;;;8.30;99.90;;;;;;5018234;28;20053;-80
2021/05/01 20:39:30;;;;;;;4.45;1.20;;;8.30;99.90;;;;;;5017964;28;20050;-83
2021/05/01 20:41:57;;;;;;;3.80;1.40;;;8.40;99.90;;;;;;5018174;28;20381;-79
2021/05/01 20:44:26;;;;;;;3.22;1.65;;;8.30;99.90;;;;;;5018313;28;20103;-80
2021/05/01 20:46:53;;;;;;;3.25;1.10;;;8.30;99.90;;;;;;5018062;28;20054;-80
2021/05/01 20:49:19;;;;;;;2.55;1.50;;;8.40;99.90;;;;;;5017947;28;20041;-80
2021/05/01 20:51:47;;;;;;;3.97;1.58;;;8.40;99.90;;;;;;5017715;28;20060;-80
2021/05/01 20:54:13;;;;;;;2.80;1.17;;;8.40;99.90;;;;;;5018214;28;20045;-80
2021/05/01 20:56:40;;;;;;;7.85;2.03;;;8.40;99.90;;;;;;5017925;28;20076;-81
2021/05/01 20:59:06;;;;;;;4.18;1.75;;;8.40;99.90;;;;;;5017993;28;20095;-80
2021/05/01 21:01:33;;;;;;;5.78;1.42;;;8.40;99.90;;;;;;5017652;28;20053;-80
2021/05/01 21:04:00;;;;;;;4.15;1.40;;;8.40;99.90;;;;;;5017806;28;20045;-80
2021/05/01 21:06:26;;;;;;;7.15;1.45;;;8.40;99.90;;;;;;5018118;28;20141;-80
2021/05/01 21:08:54;;;;;;;5.32;1.60;;;8.40;99.90;;;;;;5019738;28;20060;-80
2021/05/01 21:11:20;;;;;;;3.20;1.20;;;8.40;99.90;;;;;;5026658;28;20046;-80
2021/05/01 21:13:47;;;;;;;5.60;1.70;;;8.40;99.90;;;;;;5017374;28;20049;-79
2021/05/01 21:16:15;;;;;;;2.42;1.30;;;8.40;99.90;;;;;;5017684;28;20402;-79
2021/05/01 21:18:41;;;;;;;2.63;1.35;;;8.40;99.90;;;;;;5017802;28;20132;-81
2021/05/01 21:21:08;;;;;;;2.45;1.58;;;8.40;99.90;;;;;;5017786;28;20056;-82
2021/05/01 21:23:35;;;;;;;3.63;1.55;;;8.40;99.90;;;;;;5017767;28;20050;-82
2021/05/01 21:26:02;;;;;;;2.72;1.40;;;8.40;99.90;;;;;;5017733;28;20045;-83
2021/05/01 21:28:29;;;;;;;2.53;1.50;;;8.30;99.90;;;;;;5019851;28;20049;-85
2021/05/01 21:30:55;;;;;;;8.15;1.88;;;8.40;99.90;;;;;;5023203;28;20060;-84
2021/05/01 21:33:22;;;;;;;5.70;2.08;;;8.30;99.90;;;;;;5021296;28;20119;-87
2021/05/01 21:35:49;;;;;;;7.15;2.03;;;8.30;99.90;;;;;;5021794;28;20049;-83
2021/05/01 21:38:17;;;;;;;3.90;1.95;;;8.20;99.90;;;;;;5022302;28;20525;-89
2021/05/01 21:40:43;;;;;;;4.33;1.97;;;8.20;99.90;;;;;;5023460;28;20052;-89
2021/05/01 21:43:11;;;;;;;4.13;2.47;;;8.10;99.90;;;;;;5019376;28;20064;-92
2021/05/01 21:45:37;;;;;;;4.55;2.25;;;8.00;99.90;;;;;;5017560;28;20050;-87
2021/05/01 21:48:05;;;;;;;9.07;3.17;;;8.00;99.90;;;;;;5017207;28;20134;-82
2021/05/01 21:50:31;;;;;;;14.52;4.13;;;7.90;99.90;;;;;;5017272;28;20077;-83